sensor_id;sensor_type;location;lat;lon;timestamp;P1;durP1;ratioP1;P2;durP2;ratioP2
7645;SDS011;3864;48.180;14.178;2023-07-31T00:00:44;3.85;;;2.90;;
7645;SDS011;3864;48.180;14.178;2023-07-31T00:03:11;5.07;;;3.00;;
7645;SDS011;3864;48.180;14.178;2023-07-31T00:05:39;6.18;;;3.10;;
7645;SDS011;3864;48.180;14.178;2023-07-31T00:08:06;9.00;;;3.20;;
7645;SDS011;3864;48.180;14.178;2023-07-31T00:10:33;4.05;;;2.90;;
7645;SDS011;3864;48.180;14.178;2023-07-31T00:13:02;6.70;;;3.42;;
7645;SDS011;3864;48.180;14.178;2023-07-31T00:15:30;6.00;;;3.10;;
7645;SDS011;3864;48.180;14.178;2023-07-31T00:17:57;5.68;;;3.55;;
7645;SDS011;3864;48.180;14.178;2023-07-31T00:20:25;4.68;;;3.00;;
7645;SDS011;3864;48.180;14.178;2023-07-31T00:22:53;6.70;;;2.97;;
7645;SDS011;3864;48.180;14.178;2023-07-31T00:25:20;4.78;;;2.95;;
7645;SDS011;3864;48.180;14.178;2023-07-31T00:27:47;5.13;;;3.50;;
7645;SDS011;3864;48.180;14.178;2023-07-31T00:30:16;5.65;;;3.25;;
7645;SDS011;3864;48.180;14.178;2023-07-31T00:32:43;5.50;;;3.40;;
7645;SDS011;3864;48.180;14.178;2023-07-31T00:35:10;7.32;;;3.78;;
7645;SDS011;3864;48.180;14.178;2023-07-31T00:37:37;5.78;;;3.38;;
7645;SDS011;3864;48.180;14.178;2023-07-31T00:40:05;4.90;;;3.45;;
7645;SDS011;3864;48.180;14.178;2023-07-31T00:42:34;5.82;;;4.07;;
7645;SDS011;3864;48.180;14.178;2023-07-31T00:45:01;6.25;;;3.33;;
7645;SDS011;3864;48.180;14.178;2023-07-31T00:47:30;5.57;;;3.65;;
7645;SDS011;3864;48.180;14.178;2023-07-31T00:49:57;5.07;;;3.63;;
7645;SDS011;3864;48.180;14.178;2023-07-31T00:52:25;6.65;;;3.95;;
7645;SDS011;3864;48.180;14.178;2023-07-31T00:54:52;6.00;;;3.97;;
7645;SDS011;3864;48.180;14.178;2023-07-31T00:57:19;5.63;;;4.10;;
7645;SDS011;3864;48.180;14.178;2023-07-31T00:59:47;5.63;;;3.90;;
7645;SDS011;3864;48.180;14.178;2023-07-31T01:02:14;6.10;;;3.50;;
7645;SDS011;3864;48.180;14.178;2023-07-31T01:04:44;5.85;;;3.88;;
7645;SDS011;3864;48.180;14.178;2023-07-31T01:07:13;6.28;;;3.63;;
7645;SDS011;3864;48.180;14.178;2023-07-31T01:09:47;5.18;;;4.07;;
7645;SDS011;3864;48.180;14.178;2023-07-31T01:12:20;7.57;;;3.88;;
7645;SDS011;3864;48.180;14.178;2023-07-31T01:15:01;7.07;;;3.75;;
7645;SDS011;3864;48.180;14.178;2023-07-31T01:17:29;5.68;;;4.25;;
7645;SDS011;3864;48.180;14.178;2023-07-31T01:19:59;8.52;;;4.40;;
7645;SDS011;3864;48.180;14.178;2023-07-31T01:22:31;6.28;;;4.18;;
7645;SDS011;3864;48.180;14.178;2023-07-31T01:25:12;5.55;;;4.00;;
7645;SDS011;3864;48.180;14.178;2023-07-31T01:27:53;7.88;;;4.20;;
7645;SDS011;3864;48.180;14.178;2023-07-31T01:30:26;4.72;;;3.88;;
7645;SDS011;3864;48.180;14.178;2023-07-31T01:33:00;5.90;;;3.95;;
7645;SDS011;3864;48.180;14.178;2023-07-31T01:35:32;6.63;;;4.60;;
7645;SDS011;3864;48.180;14.178;2023-07-31T01:37:59;8.20;;;4.47;;
7645;SDS011;3864;48.180;14.178;2023-07-31T01:40:27;7.22;;;4.32;;
7645;SDS011;3864;48.180;14.178;2023-07-31T01:42:56;5.30;;;3.60;;
7645;SDS011;3864;48.180;14.178;2023-07-31T01:45:23;6.40;;;4.20;;
7645;SDS011;3864;48.180;14.178;2023-07-31T01:47:50;7.70;;;4.07;;
7645;SDS011;3864;48.180;14.178;2023-07-31T01:50:17;5.78;;;3.88;;
7645;SDS011;3864;48.180;14.178;2023-07-31T01:52:45;4.90;;;4.05;;
7645;SDS011;3864;48.180;14.178;2023-07-31T01:55:12;6.25;;;3.90;;
7645;SDS011;3864;48.180;14.178;2023-07-31T01:57:39;5.97;;;3.70;;
7645;SDS011;3864;48.180;14.178;2023-07-31T02:00:09;5.85;;;3.55;;
7645;SDS011;3864;48.180;14.178;2023-07-31T02:02:37;6.93;;;3.70;;
7645;SDS011;3864;48.180;14.178;2023-07-31T02:05:05;5.72;;;3.67;;
7645;SDS011;3864;48.180;14.178;2023-07-31T02:07:32;5.13;;;3.75;;
7645;SDS011;3864;48.180;14.178;2023-07-31T02:10:00;6.25;;;3.65;;
7645;SDS011;3864;48.180;14.178;2023-07-31T02:12:27;6.75;;;3.50;;
7645;SDS011;3864;48.180;14.178;2023-07-31T02:14:56;6.03;;;3.35;;
7645;SDS011;3864;48.180;14.178;2023-07-31T02:17:25;4.93;;;3.40;;
7645;SDS011;3864;48.180;14.178;2023-07-31T02:19:52;6.15;;;3.28;;
7645;SDS011;3864;48.180;14.178;2023-07-31T02:22:19;8.10;;;3.63;;
7645;SDS011;3864;48.180;14.178;2023-07-31T02:24:47;8.60;;;3.80;;
7645;SDS011;3864;48.180;14.178;2023-07-31T02:27:14;6.63;;;4.07;;
7645;SDS011;3864;48.180;14.178;2023-07-31T02:29:41;5.10;;;3.10;;
7645;SDS011;3864;48.180;14.178;2023-07-31T02:32:09;3.75;;;2.80;;
7645;SDS011;3864;48.180;14.178;2023-07-31T02:34:37;6.13;;;3.33;;
7645;SDS011;3864;48.180;14.178;2023-07-31T02:37:05;5.50;;;3.25;;
7645;SDS011;3864;48.180;14.178;2023-07-31T02:39:32;7.03;;;3.15;;
7645;SDS011;3864;48.180;14.178;2023-07-31T02:41:59;7.07;;;3.63;;
7645;SDS011;3864;48.180;14.178;2023-07-31T02:44:27;7.40;;;3.58;;
7645;SDS011;3864;48.180;14.178;2023-07-31T02:46:54;7.38;;;3.28;;
7645;SDS011;3864;48.180;14.178;2023-07-31T02:49:22;7.90;;;3.80;;
7645;SDS011;3864;48.180;14.178;2023-07-31T02:51:51;6.43;;;3.00;;
7645;SDS011;3864;48.180;14.178;2023-07-31T02:54:18;5.18;;;3.38;;
7645;SDS011;3864;48.180;14.178;2023-07-31T02:56:46;6.93;;;3.22;;
7645;SDS011;3864;48.180;14.178;2023-07-31T02:59:14;6.45;;;3.28;;
7645;SDS011;3864;48.180;14.178;2023-07-31T03:01:41;5.30;;;3.60;;
7645;SDS011;3864;48.180;14.178;2023-07-31T03:04:08;7.47;;;3.30;;
7645;SDS011;3864;48.180;14.178;2023-07-31T03:06:36;5.88;;;3.67;;
7645;SDS011;3864;48.180;14.178;2023-07-31T03:09:04;8.48;;;3.58;;
7645;SDS011;3864;48.180;14.178;2023-07-31T03:11:32;4.85;;;3.05;;
7645;SDS011;3864;48.180;14.178;2023-07-31T03:13:59;7.10;;;3.15;;
7645;SDS011;3864;48.180;14.178;2023-07-31T03:16:26;5.72;;;3.55;;
7645;SDS011;3864;48.180;14.178;2023-07-31T03:18:54;8.05;;;3.78;;
7645;SDS011;3864;48.180;14.178;2023-07-31T03:21:21;6.20;;;3.53;;
7645;SDS011;3864;48.180;14.178;2023-07-31T03:23:50;7.03;;;3.75;;
7645;SDS011;3864;48.180;14.178;2023-07-31T03:26:19;5.70;;;3.30;;
7645;SDS011;3864;48.180;14.178;2023-07-31T03:28:46;6.68;;;3.10;;
7645;SDS011;3864;48.180;14.178;2023-07-31T03:31:14;8.60;;;3.45;;
7645;SDS011;3864;48.180;14.178;2023-07-31T03:33:42;4.35;;;3.08;;
7645;SDS011;3864;48.180;14.178;2023-07-31T03:36:09;7.97;;;3.10;;
7645;SDS011;3864;48.180;14.178;2023-07-31T03:38:36;6.38;;;3.00;;
7645;SDS011;3864;48.180;14.178;2023-07-31T03:41:03;4.60;;;3.08;;
7645;SDS011;3864;48.180;14.178;2023-07-31T03:43:32;4.78;;;3.20;;
7645;SDS011;3864;48.180;14.178;2023-07-31T03:45:59;3.92;;;2.95;;
7645;SDS011;3864;48.180;14.178;2023-07-31T03:48:27;5.95;;;2.95;;
7645;SDS011;3864;48.180;14.178;2023-07-31T03:50:54;4.88;;;3.30;;
7645;SDS011;3864;48.180;14.178;2023-07-31T03:53:22;4.82;;;2.88;;
7645;SDS011;3864;48.180;14.178;2023-07-31T03:55:49;5.35;;;2.92;;
7645;SDS011;3864;48.180;14.178;2023-07-31T03:58:16;7.72;;;3.33;;
7645;SDS011;3864;48.180;14.178;2023-07-31T04:00:45;6.25;;;3.25;;
7645;SDS011;3864;48.180;14.178;2023-07-31T04:03:12;6.40;;;3.83;;
7645;SDS011;3864;48.180;14.178;2023-07-31T04:05:39;8.57;;;3.30;;
7645;SDS011;3864;48.180;14.178;2023-07-31T04:08:06;4.65;;;3.15;;
7645;SDS011;3864;48.180;14.178;2023-07-31T04:10:33;6.40;;;3.22;;
7645;SDS011;3864;48.180;14.178;2023-07-31T04:13:00;5.85;;;3.05;;
7645;SDS011;3864;48.180;14.178;2023-07-31T04:15:27;7.82;;;3.38;;
7645;SDS011;3864;48.180;14.178;2023-07-31T04:17:55;7.63;;;3.35;;
7645;SDS011;3864;48.180;14.178;2023-07-31T04:20:22;9.15;;;3.60;;
7645;SDS011;3864;48.180;14.178;2023-07-31T04:22:50;5.28;;;3.22;;
7645;SDS011;3864;48.180;14.178;2023-07-31T04:25:17;6.22;;;3.38;;
7645;SDS011;3864;48.180;14.178;2023-07-31T04:27:44;8.88;;;3.38;;
7645;SDS011;3864;48.180;14.178;2023-07-31T04:30:11;5.70;;;3.00;;
7645;SDS011;3864;48.180;14.178;2023-07-31T04:32:38;4.85;;;3.40;;
7645;SDS011;3864;48.180;14.178;2023-07-31T04:35:07;9.23;;;4.00;;
7645;SDS011;3864;48.180;14.178;2023-07-31T04:37:34;7.20;;;3.95;;
7645;SDS011;3864;48.180;14.178;2023-07-31T04:40:01;7.63;;;3.60;;
7645;SDS011;3864;48.180;14.178;2023-07-31T04:42:28;7.75;;;3.20;;
7645;SDS011;3864;48.180;14.178;2023-07-31T04:44:55;6.15;;;3.55;;
7645;SDS011;3864;48.180;14.178;2023-07-31T04:47:22;7.57;;;3.40;;
7645;SDS011;3864;48.180;14.178;2023-07-31T04:49:49;5.20;;;2.92;;
7645;SDS011;3864;48.180;14.178;2023-07-31T04:52:18;4.35;;;2.80;;
7645;SDS011;3864;48.180;14.178;2023-07-31T04:54:45;6.10;;;3.60;;
7645;SDS011;3864;48.180;14.178;2023-07-31T04:57:12;7.68;;;3.20;;
7645;SDS011;3864;48.180;14.178;2023-07-31T04:59:39;4.00;;;2.67;;
7645;SDS011;3864;48.180;14.178;2023-07-31T05:02:06;6.18;;;3.45;;
7645;SDS011;3864;48.180;14.178;2023-07-31T05:04:34;6.20;;;3.63;;
7645;SDS011;3864;48.180;14.178;2023-07-31T05:07:01;7.18;;;3.40;;
7645;SDS011;3864;48.180;14.178;2023-07-31T05:09:30;5.63;;;3.20;;
7645;SDS011;3864;48.180;14.178;2023-07-31T05:11:57;4.13;;;2.90;;
7645;SDS011;3864;48.180;14.178;2023-07-31T05:14:25;6.43;;;3.10;;
7645;SDS011;3864;48.180;14.178;2023-07-31T05:16:52;6.05;;;3.15;;
7645;SDS011;3864;48.180;14.178;2023-07-31T05:19:19;6.13;;;3.28;;
7645;SDS011;3864;48.180;14.178;2023-07-31T05:21:46;5.60;;;2.92;;
7645;SDS011;3864;48.180;14.178;2023-07-31T05:24:13;5.38;;;3.10;;
7645;SDS011;3864;48.180;14.178;2023-07-31T05:26:42;7.03;;;3.10;;
7645;SDS011;3864;48.180;14.178;2023-07-31T05:29:09;5.05;;;2.70;;
7645;SDS011;3864;48.180;14.178;2023-07-31T05:31:36;10.23;;;3.78;;
7645;SDS011;3864;48.180;14.178;2023-07-31T05:34:03;5.90;;;3.03;;
7645;SDS011;3864;48.180;14.178;2023-07-31T05:36:30;5.00;;;3.00;;
7645;SDS011;3864;48.180;14.178;2023-07-31T05:38:57;7.00;;;3.75;;
7645;SDS011;3864;48.180;14.178;2023-07-31T05:41:24;7.47;;;3.00;;
7645;SDS011;3864;48.180;14.178;2023-07-31T05:43:53;6.25;;;3.30;;
7645;SDS011;3864;48.180;14.178;2023-07-31T05:46:20;6.32;;;3.00;;
7645;SDS011;3864;48.180;14.178;2023-07-31T05:48:47;6.38;;;2.80;;
7645;SDS011;3864;48.180;14.178;2023-07-31T05:51:14;3.95;;;2.60;;
7645;SDS011;3864;48.180;14.178;2023-07-31T05:53:41;4.38;;;2.40;;
7645;SDS011;3864;48.180;14.178;2023-07-31T05:56:08;4.60;;;2.60;;
7645;SDS011;3864;48.180;14.178;2023-07-31T05:58:35;3.13;;;1.95;;
7645;SDS011;3864;48.180;14.178;2023-07-31T06:01:04;4.47;;;2.30;;
7645;SDS011;3864;48.180;14.178;2023-07-31T06:03:31;4.57;;;2.13;;
7645;SDS011;3864;48.180;14.178;2023-07-31T06:05:59;4.28;;;2.10;;
7645;SDS011;3864;48.180;14.178;2023-07-31T06:08:26;5.43;;;2.42;;
7645;SDS011;3864;48.180;14.178;2023-07-31T06:10:53;3.95;;;2.00;;
7645;SDS011;3864;48.180;14.178;2023-07-31T06:13:20;4.15;;;1.90;;
7645;SDS011;3864;48.180;14.178;2023-07-31T06:15:47;4.60;;;2.08;;
7645;SDS011;3864;48.180;14.178;2023-07-31T06:18:15;5.07;;;2.03;;
7645;SDS011;3864;48.180;14.178;2023-07-31T06:20:42;3.15;;;1.85;;
7645;SDS011;3864;48.180;14.178;2023-07-31T06:23:09;3.80;;;2.08;;
7645;SDS011;3864;48.180;14.178;2023-07-31T06:25:37;3.58;;;2.20;;
7645;SDS011;3864;48.180;14.178;2023-07-31T06:28:04;4.75;;;1.90;;
7645;SDS011;3864;48.180;14.178;2023-07-31T06:30:31;3.25;;;1.95;;
7645;SDS011;3864;48.180;14.178;2023-07-31T06:32:58;4.22;;;2.20;;
7645;SDS011;3864;48.180;14.178;2023-07-31T06:35:26;3.58;;;2.05;;
7645;SDS011;3864;48.180;14.178;2023-07-31T06:37:53;3.75;;;2.00;;
7645;SDS011;3864;48.180;14.178;2023-07-31T06:40:21;4.28;;;2.00;;
7645;SDS011;3864;48.180;14.178;2023-07-31T06:42:48;4.55;;;2.00;;
7645;SDS011;3864;48.180;14.178;2023-07-31T06:45:16;3.72;;;2.00;;
7645;SDS011;3864;48.180;14.178;2023-07-31T06:47:43;4.55;;;2.10;;
7645;SDS011;3864;48.180;14.178;2023-07-31T06:50:10;3.90;;;1.80;;
7645;SDS011;3864;48.180;14.178;2023-07-31T06:52:38;4.75;;;1.90;;
7645;SDS011;3864;48.180;14.178;2023-07-31T06:55:15;5.18;;;1.90;;
7645;SDS011;3864;48.180;14.178;2023-07-31T06:57:44;3.83;;;1.92;;
7645;SDS011;3864;48.180;14.178;2023-07-31T07:00:12;3.85;;;1.95;;
7645;SDS011;3864;48.180;14.178;2023-07-31T07:02:39;4.35;;;2.00;;
7645;SDS011;3864;48.180;14.178;2023-07-31T07:05:07;4.50;;;2.08;;
7645;SDS011;3864;48.180;14.178;2023-07-31T07:07:34;3.78;;;2.10;;
7645;SDS011;3864;48.180;14.178;2023-07-31T07:10:04;5.13;;;2.00;;
7645;SDS011;3864;48.180;14.178;2023-07-31T07:12:32;4.93;;;2.35;;
7645;SDS011;3864;48.180;14.178;2023-07-31T07:14:59;4.85;;;1.80;;
7645;SDS011;3864;48.180;14.178;2023-07-31T07:17:28;4.57;;;2.15;;
7645;SDS011;3864;48.180;14.178;2023-07-31T07:19:56;5.70;;;2.92;;
7645;SDS011;3864;48.180;14.178;2023-07-31T07:22:23;3.65;;;1.80;;
7645;SDS011;3864;48.180;14.178;2023-07-31T07:24:50;3.90;;;2.17;;
7645;SDS011;3864;48.180;14.178;2023-07-31T07:27:19;3.53;;;2.00;;
7645;SDS011;3864;48.180;14.178;2023-07-31T07:29:46;3.65;;;1.90;;
7645;SDS011;3864;48.180;14.178;2023-07-31T07:32:13;4.97;;;2.03;;
7645;SDS011;3864;48.180;14.178;2023-07-31T07:34:40;4.05;;;1.77;;
7645;SDS011;3864;48.180;14.178;2023-07-31T07:37:07;4.15;;;1.95;;
7645;SDS011;3864;48.180;14.178;2023-07-31T07:39:34;6.30;;;1.88;;
7645;SDS011;3864;48.180;14.178;2023-07-31T07:42:01;4.15;;;1.92;;
7645;SDS011;3864;48.180;14.178;2023-07-31T07:44:30;5.95;;;2.03;;
7645;SDS011;3864;48.180;14.178;2023-07-31T07:46:57;4.78;;;2.00;;
7645;SDS011;3864;48.180;14.178;2023-07-31T07:49:24;4.07;;;2.00;;
7645;SDS011;3864;48.180;14.178;2023-07-31T07:51:51;4.97;;;2.47;;
7645;SDS011;3864;48.180;14.178;2023-07-31T07:54:18;5.90;;;2.15;;
7645;SDS011;3864;48.180;14.178;2023-07-31T07:56:46;7.55;;;2.15;;
7645;SDS011;3864;48.180;14.178;2023-07-31T07:59:14;4.82;;;2.10;;
7645;SDS011;3864;48.180;14.178;2023-07-31T08:01:43;3.70;;;2.00;;
7645;SDS011;3864;48.180;14.178;2023-07-31T08:04:10;4.60;;;2.35;;
7645;SDS011;3864;48.180;14.178;2023-07-31T08:06:37;4.20;;;1.92;;
7645;SDS011;3864;48.180;14.178;2023-07-31T08:09:05;4.32;;;2.15;;
7645;SDS011;3864;48.180;14.178;2023-07-31T08:11:33;7.38;;;2.10;;
7645;SDS011;3864;48.180;14.178;2023-07-31T08:14:00;3.85;;;2.10;;
7645;SDS011;3864;48.180;14.178;2023-07-31T08:16:27;3.55;;;1.83;;
7645;SDS011;3864;48.180;14.178;2023-07-31T08:18:56;3.63;;;1.90;;
7645;SDS011;3864;48.180;14.178;2023-07-31T08:21:23;8.15;;;2.20;;
7645;SDS011;3864;48.180;14.178;2023-07-31T08:23:50;7.35;;;2.25;;
7645;SDS011;3864;48.180;14.178;2023-07-31T08:26:17;3.75;;;1.88;;
7645;SDS011;3864;48.180;14.178;2023-07-31T08:28:46;4.50;;;2.15;;
7645;SDS011;3864;48.180;14.178;2023-07-31T08:31:13;3.60;;;2.20;;
7645;SDS011;3864;48.180;14.178;2023-07-31T08:33:40;6.90;;;2.50;;
7645;SDS011;3864;48.180;14.178;2023-07-31T08:36:08;7.20;;;2.60;;
7645;SDS011;3864;48.180;14.178;2023-07-31T08:38:35;4.28;;;2.25;;
7645;SDS011;3864;48.180;14.178;2023-07-31T08:41:03;4.40;;;1.90;;
7645;SDS011;3864;48.180;14.178;2023-07-31T08:43:30;3.47;;;1.85;;
7645;SDS011;3864;48.180;14.178;2023-07-31T08:45:58;4.32;;;2.33;;
7645;SDS011;3864;48.180;14.178;2023-07-31T08:48:26;4.80;;;2.20;;
7645;SDS011;3864;48.180;14.178;2023-07-31T08:50:55;4.63;;;2.45;;
7645;SDS011;3864;48.180;14.178;2023-07-31T08:53:24;4.05;;;2.17;;
7645;SDS011;3864;48.180;14.178;2023-07-31T08:55:52;4.38;;;2.20;;
7645;SDS011;3864;48.180;14.178;2023-07-31T08:58:20;5.10;;;2.00;;
7645;SDS011;3864;48.180;14.178;2023-07-31T09:00:47;3.85;;;2.00;;
7645;SDS011;3864;48.180;14.178;2023-07-31T09:03:17;4.07;;;1.88;;
7645;SDS011;3864;48.180;14.178;2023-07-31T09:05:45;2.75;;;1.83;;
7645;SDS011;3864;48.180;14.178;2023-07-31T09:08:13;5.63;;;1.90;;
7645;SDS011;3864;48.180;14.178;2023-07-31T09:10:45;4.45;;;2.00;;
7645;SDS011;3864;48.180;14.178;2023-07-31T09:13:15;4.00;;;1.85;;
7645;SDS011;3864;48.180;14.178;2023-07-31T09:15:42;3.67;;;2.05;;
7645;SDS011;3864;48.180;14.178;2023-07-31T09:18:11;5.47;;;2.40;;
7645;SDS011;3864;48.180;14.178;2023-07-31T09:20:39;2.83;;;1.85;;
7645;SDS011;3864;48.180;14.178;2023-07-31T09:23:07;5.43;;;2.28;;
7645;SDS011;3864;48.180;14.178;2023-07-31T09:25:35;3.20;;;1.80;;
7645;SDS011;3864;48.180;14.178;2023-07-31T09:28:05;3.50;;;1.95;;
7645;SDS011;3864;48.180;14.178;2023-07-31T09:30:44;5.78;;;1.80;;
7645;SDS011;3864;48.180;14.178;2023-07-31T09:33:13;4.50;;;1.90;;
7645;SDS011;3864;48.180;14.178;2023-07-31T09:35:40;5.35;;;2.08;;
7645;SDS011;3864;48.180;14.178;2023-07-31T09:38:08;2.65;;;1.73;;
7645;SDS011;3864;48.180;14.178;2023-07-31T09:40:37;4.13;;;2.00;;
7645;SDS011;3864;48.180;14.178;2023-07-31T09:43:07;4.40;;;1.88;;
7645;SDS011;3864;48.180;14.178;2023-07-31T09:45:36;3.78;;;1.92;;
7645;SDS011;3864;48.180;14.178;2023-07-31T09:48:06;3.35;;;1.80;;
7645;SDS011;3864;48.180;14.178;2023-07-31T09:50:34;3.90;;;2.15;;
7645;SDS011;3864;48.180;14.178;2023-07-31T09:53:03;5.75;;;2.10;;
7645;SDS011;3864;48.180;14.178;2023-07-31T09:55:31;3.25;;;1.92;;
7645;SDS011;3864;48.180;14.178;2023-07-31T09:57:58;4.15;;;2.00;;
7645;SDS011;3864;48.180;14.178;2023-07-31T10:00:27;3.58;;;1.88;;
7645;SDS011;3864;48.180;14.178;2023-07-31T10:02:57;3.42;;;1.88;;
7645;SDS011;3864;48.180;14.178;2023-07-31T10:05:28;4.03;;;2.05;;
7645;SDS011;3864;48.180;14.178;2023-07-31T10:08:00;6.18;;;2.22;;
7645;SDS011;3864;48.180;14.178;2023-07-31T10:10:27;4.18;;;1.80;;
7645;SDS011;3864;48.180;14.178;2023-07-31T10:12:56;3.75;;;2.00;;
7645;SDS011;3864;48.180;14.178;2023-07-31T10:15:24;5.47;;;1.90;;
7645;SDS011;3864;48.180;14.178;2023-07-31T10:17:54;3.22;;;2.08;;
7645;SDS011;3864;48.180;14.178;2023-07-31T10:20:22;3.60;;;1.92;;
7645;SDS011;3864;48.180;14.178;2023-07-31T10:22:50;3.58;;;1.73;;
7645;SDS011;3864;48.180;14.178;2023-07-31T10:25:18;3.55;;;2.05;;
7645;SDS011;3864;48.180;14.178;2023-07-31T10:27:46;3.67;;;1.80;;
7645;SDS011;3864;48.180;14.178;2023-07-31T10:30:15;4.65;;;2.10;;
7645;SDS011;3864;48.180;14.178;2023-07-31T10:32:46;4.65;;;1.80;;
7645;SDS011;3864;48.180;14.178;2023-07-31T10:35:15;3.55;;;1.77;;
7645;SDS011;3864;48.180;14.178;2023-07-31T10:37:43;3.58;;;1.95;;
7645;SDS011;3864;48.180;14.178;2023-07-31T10:40:11;4.30;;;2.40;;
7645;SDS011;3864;48.180;14.178;2023-07-31T10:42:45;5.10;;;2.13;;
7645;SDS011;3864;48.180;14.178;2023-07-31T10:45:23;3.22;;;1.90;;
7645;SDS011;3864;48.180;14.178;2023-07-31T10:50:27;3.20;;;1.90;;
7645;SDS011;3864;48.180;14.178;2023-07-31T10:52:56;3.80;;;2.00;;
7645;SDS011;3864;48.180;14.178;2023-07-31T10:55:27;4.15;;;2.10;;
7645;SDS011;3864;48.180;14.178;2023-07-31T10:57:57;5.57;;;2.13;;
7645;SDS011;3864;48.180;14.178;2023-07-31T11:00:30;3.30;;;2.08;;
7645;SDS011;3864;48.180;14.178;2023-07-31T11:05:50;4.53;;;2.20;;
7645;SDS011;3864;48.180;14.178;2023-07-31T11:08:20;5.57;;;2.40;;
7645;SDS011;3864;48.180;14.178;2023-07-31T11:10:49;3.88;;;2.22;;
7645;SDS011;3864;48.180;14.178;2023-07-31T11:13:19;4.07;;;2.00;;
7645;SDS011;3864;48.180;14.178;2023-07-31T11:15:46;3.03;;;1.75;;
7645;SDS011;3864;48.180;14.178;2023-07-31T11:18:15;5.50;;;2.30;;
7645;SDS011;3864;48.180;14.178;2023-07-31T11:20:43;3.38;;;2.03;;
7645;SDS011;3864;48.180;14.178;2023-07-31T11:23:10;3.65;;;2.20;;
7645;SDS011;3864;48.180;14.178;2023-07-31T11:25:38;5.22;;;2.03;;
7645;SDS011;3864;48.180;14.178;2023-07-31T11:28:07;4.60;;;1.92;;
7645;SDS011;3864;48.180;14.178;2023-07-31T11:30:35;3.08;;;1.90;;
7645;SDS011;3864;48.180;14.178;2023-07-31T11:33:03;3.63;;;2.05;;
7645;SDS011;3864;48.180;14.178;2023-07-31T11:35:33;3.50;;;2.00;;
7645;SDS011;3864;48.180;14.178;2023-07-31T11:38:01;6.18;;;2.00;;
7645;SDS011;3864;48.180;14.178;2023-07-31T11:40:29;5.10;;;2.55;;
7645;SDS011;3864;48.180;14.178;2023-07-31T11:42:56;5.10;;;2.35;;
7645;SDS011;3864;48.180;14.178;2023-07-31T11:45:26;4.03;;;2.35;;
7645;SDS011;3864;48.180;14.178;2023-07-31T11:47:54;4.72;;;2.38;;
7645;SDS011;3864;48.180;14.178;2023-07-31T11:50:22;4.05;;;2.00;;
7645;SDS011;3864;48.180;14.178;2023-07-31T11:52:54;3.83;;;1.90;;
7645;SDS011;3864;48.180;14.178;2023-07-31T11:55:23;4.97;;;2.05;;
7645;SDS011;3864;48.180;14.178;2023-07-31T11:57:51;4.28;;;2.00;;
7645;SDS011;3864;48.180;14.178;2023-07-31T12:00:20;4.38;;;1.98;;
7645;SDS011;3864;48.180;14.178;2023-07-31T12:02:48;6.20;;;2.20;;
7645;SDS011;3864;48.180;14.178;2023-07-31T12:05:16;3.80;;;2.40;;
7645;SDS011;3864;48.180;14.178;2023-07-31T12:07:44;4.00;;;2.30;;
7645;SDS011;3864;48.180;14.178;2023-07-31T12:10:23;4.43;;;2.35;;
7645;SDS011;3864;48.180;14.178;2023-07-31T12:12:58;5.10;;;2.28;;
7645;SDS011;3864;48.180;14.178;2023-07-31T12:18:15;4.10;;;2.20;;
7645;SDS011;3864;48.180;14.178;2023-07-31T12:20:47;6.70;;;2.60;;
7645;SDS011;3864;48.180;14.178;2023-07-31T12:23:16;4.78;;;2.30;;
7645;SDS011;3864;48.180;14.178;2023-07-31T12:25:45;4.05;;;2.33;;
7645;SDS011;3864;48.180;14.178;2023-07-31T12:28:12;4.57;;;2.20;;
7645;SDS011;3864;48.180;14.178;2023-07-31T12:30:40;3.53;;;2.08;;
7645;SDS011;3864;48.180;14.178;2023-07-31T12:33:12;6.95;;;2.00;;
7645;SDS011;3864;48.180;14.178;2023-07-31T12:35:41;3.65;;;2.10;;
7645;SDS011;3864;48.180;14.178;2023-07-31T12:38:09;4.40;;;2.28;;
7645;SDS011;3864;48.180;14.178;2023-07-31T12:40:38;3.47;;;2.20;;
7645;SDS011;3864;48.180;14.178;2023-07-31T12:43:08;5.22;;;2.25;;
7645;SDS011;3864;48.180;14.178;2023-07-31T12:45:35;3.13;;;2.10;;
7645;SDS011;3864;48.180;14.178;2023-07-31T12:48:02;3.08;;;2.00;;
7645;SDS011;3864;48.180;14.178;2023-07-31T12:50:29;3.90;;;2.25;;
7645;SDS011;3864;48.180;14.178;2023-07-31T12:52:57;4.72;;;2.38;;
7645;SDS011;3864;48.180;14.178;2023-07-31T12:55:24;3.63;;;2.08;;
7645;SDS011;3864;48.180;14.178;2023-07-31T12:57:51;3.53;;;2.50;;
7645;SDS011;3864;48.180;14.178;2023-07-31T13:00:20;5.50;;;2.33;;
7645;SDS011;3864;48.180;14.178;2023-07-31T13:02:47;3.25;;;2.00;;
7645;SDS011;3864;48.180;14.178;2023-07-31T13:05:14;4.18;;;2.10;;
7645;SDS011;3864;48.180;14.178;2023-07-31T13:07:41;5.15;;;2.20;;
7645;SDS011;3864;48.180;14.178;2023-07-31T13:10:09;5.10;;;2.40;;
7645;SDS011;3864;48.180;14.178;2023-07-31T13:12:36;3.78;;;2.55;;
7645;SDS011;3864;48.180;14.178;2023-07-31T13:15:03;4.53;;;2.20;;
7645;SDS011;3864;48.180;14.178;2023-07-31T13:17:33;3.67;;;2.20;;
7645;SDS011;3864;48.180;14.178;2023-07-31T13:20:03;3.40;;;2.30;;
7645;SDS011;3864;48.180;14.178;2023-07-31T13:22:30;5.13;;;2.40;;
7645;SDS011;3864;48.180;14.178;2023-07-31T13:24:57;3.63;;;2.45;;
7645;SDS011;3864;48.180;14.178;2023-07-31T13:27:24;5.68;;;2.80;;
7645;SDS011;3864;48.180;14.178;2023-07-31T13:29:52;5.22;;;2.20;;
7645;SDS011;3864;48.180;14.178;2023-07-31T13:32:19;4.78;;;2.17;;
7645;SDS011;3864;48.180;14.178;2023-07-31T13:34:48;4.82;;;2.60;;
7645;SDS011;3864;48.180;14.178;2023-07-31T13:37:15;4.13;;;2.08;;
7645;SDS011;3864;48.180;14.178;2023-07-31T13:39:42;4.38;;;2.50;;
7645;SDS011;3864;48.180;14.178;2023-07-31T13:42:09;3.38;;;2.20;;
7645;SDS011;3864;48.180;14.178;2023-07-31T13:44:37;4.25;;;2.58;;
7645;SDS011;3864;48.180;14.178;2023-07-31T13:47:04;3.67;;;2.22;;
7645;SDS011;3864;48.180;14.178;2023-07-31T13:49:32;3.60;;;2.30;;
7645;SDS011;3864;48.180;14.178;2023-07-31T13:52:00;2.75;;;1.75;;
7645;SDS011;3864;48.180;14.178;2023-07-31T13:54:28;4.05;;;2.20;;
7645;SDS011;3864;48.180;14.178;2023-07-31T13:56:55;3.30;;;2.25;;
7645;SDS011;3864;48.180;14.178;2023-07-31T13:59:22;3.75;;;2.40;;
7645;SDS011;3864;48.180;14.178;2023-07-31T14:01:49;3.92;;;2.47;;
7645;SDS011;3864;48.180;14.178;2023-07-31T14:04:16;3.40;;;2.10;;
7645;SDS011;3864;48.180;14.178;2023-07-31T14:06:44;3.40;;;2.58;;
7645;SDS011;3864;48.180;14.178;2023-07-31T14:09:14;6.20;;;2.30;;
7645;SDS011;3864;48.180;14.178;2023-07-31T14:11:42;4.60;;;2.53;;
7645;SDS011;3864;48.180;14.178;2023-07-31T14:14:09;3.65;;;2.28;;
7645;SDS011;3864;48.180;14.178;2023-07-31T14:16:37;3.33;;;2.17;;
7645;SDS011;3864;48.180;14.178;2023-07-31T14:19:04;5.38;;;2.55;;
7645;SDS011;3864;48.180;14.178;2023-07-31T14:21:32;4.65;;;2.40;;
7645;SDS011;3864;48.180;14.178;2023-07-31T14:23:59;3.88;;;2.42;;
7645;SDS011;3864;48.180;14.178;2023-07-31T14:26:28;3.35;;;2.58;;
7645;SDS011;3864;48.180;14.178;2023-07-31T14:28:55;3.30;;;2.25;;
7645;SDS011;3864;48.180;14.178;2023-07-31T14:31:22;3.38;;;2.30;;
7645;SDS011;3864;48.180;14.178;2023-07-31T14:33:49;4.45;;;2.15;;
7645;SDS011;3864;48.180;14.178;2023-07-31T14:36:16;3.97;;;2.50;;
7645;SDS011;3864;48.180;14.178;2023-07-31T14:38:43;3.92;;;2.30;;
7645;SDS011;3864;48.180;14.178;2023-07-31T14:41:10;3.60;;;2.33;;
7645;SDS011;3864;48.180;14.178;2023-07-31T14:43:39;4.55;;;2.20;;
7645;SDS011;3864;48.180;14.178;2023-07-31T14:46:06;3.38;;;2.47;;
7645;SDS011;3864;48.180;14.178;2023-07-31T14:48:33;4.25;;;2.45;;
7645;SDS011;3864;48.180;14.178;2023-07-31T14:51:00;4.05;;;2.58;;
7645;SDS011;3864;48.180;14.178;2023-07-31T14:53:27;3.63;;;2.38;;
7645;SDS011;3864;48.180;14.178;2023-07-31T14:55:54;3.88;;;2.40;;
7645;SDS011;3864;48.180;14.178;2023-07-31T14:58:22;3.40;;;2.53;;
7645;SDS011;3864;48.180;14.178;2023-07-31T15:00:50;3.75;;;2.33;;
7645;SDS011;3864;48.180;14.178;2023-07-31T15:03:17;4.53;;;2.30;;
7645;SDS011;3864;48.180;14.178;2023-07-31T15:05:44;3.92;;;2.17;;
7645;SDS011;3864;48.180;14.178;2023-07-31T15:08:11;3.90;;;2.13;;
7645;SDS011;3864;48.180;14.178;2023-07-31T15:10:38;4.72;;;2.47;;
7645;SDS011;3864;48.180;14.178;2023-07-31T15:13:05;3.30;;;2.15;;